Geneva on the Lake, Ohio
Current Conditions -  °F | °C
As of 11:53 AM on Friday 19 Dec 2014 (Local Time) from KHZY Reporting Station
Overcast Overcast  
Wind Chill: 23°   Ceiling: 2000
Heat Index: 30°   Visibility: 10mi
Dew Point: 22°   Wind: 7mph
Humidity: 72%   Direction: 330°NNW
Pressure: 30.21"   Gusts: NA
Location:  41.7762°N, 80.9544°W
Report Text: KHZY 191653Z AUTO 33006KT 10SM BKN020 OVC028 M01/M06 A3021 RMK AO2 SLP239 T10111056
Loading
Personal Weather Stations






























Interactive Weather Map New forecast layout! Learn more

10-Day Weather Forecast

Advertisements
Track Severe Weather on mobile